sensor_id;sensor_type;location;lat;lon;timestamp;P1;durP1;ratioP1;P2;durP2;ratioP2
51122;SDS011;37162;41.724;13.346;2022-07-23T00:01:31;3.25;;;2.65;;
51122;SDS011;37162;41.724;13.346;2022-07-23T00:03:57;3.85;;;2.30;;
51122;SDS011;37162;41.724;13.346;2022-07-23T00:06:23;3.05;;;2.65;;
51122;SDS011;37162;41.724;13.346;2022-07-23T00:08:50;2.70;;;2.38;;
51122;SDS011;37162;41.724;13.346;2022-07-23T00:11:16;2.92;;;2.60;;
51122;SDS011;37162;41.724;13.346;2022-07-23T00:13:41;2.45;;;2.25;;
51122;SDS011;37162;41.724;13.346;2022-07-23T00:16:07;3.15;;;2.28;;
51122;SDS011;37162;41.724;13.346;2022-07-23T00:18:32;2.30;;;2.10;;
51122;SDS011;37162;41.724;13.346;2022-07-23T00:20:58;5.13;;;2.25;;
51122;SDS011;37162;41.724;13.346;2022-07-23T00:23:23;3.47;;;2.83;;
51122;SDS011;37162;41.724;13.346;2022-07-23T00:25:50;3.03;;;2.70;;
51122;SDS011;37162;41.724;13.346;2022-07-23T00:28:16;3.85;;;2.67;;
51122;SDS011;37162;41.724;13.346;2022-07-23T00:30:43;2.78;;;2.58;;
51122;SDS011;37162;41.724;13.346;2022-07-23T00:33:08;2.90;;;2.60;;
51122;SDS011;37162;41.724;13.346;2022-07-23T00:35:35;2.67;;;2.47;;
51122;SDS011;37162;41.724;13.346;2022-07-23T00:38:02;3.08;;;2.50;;
51122;SDS011;37162;41.724;13.346;2022-07-23T00:40:28;2.92;;;2.40;;
51122;SDS011;37162;41.724;13.346;2022-07-23T00:42:55;2.53;;;2.33;;
51122;SDS011;37162;41.724;13.346;2022-07-23T00:45:20;4.00;;;2.45;;
51122;SDS011;37162;41.724;13.346;2022-07-23T00:47:46;3.85;;;2.75;;
51122;SDS011;37162;41.724;13.346;2022-07-23T00:50:12;2.58;;;2.38;;
51122;SDS011;37162;41.724;13.346;2022-07-23T00:52:38;2.60;;;2.40;;
51122;SDS011;37162;41.724;13.346;2022-07-23T00:55:05;2.80;;;2.40;;
51122;SDS011;37162;41.724;13.346;2022-07-23T00:57:32;2.78;;;2.33;;
51122;SDS011;37162;41.724;13.346;2022-07-23T00:59:58;4.70;;;2.60;;
51122;SDS011;37162;41.724;13.346;2022-07-23T01:02:24;2.95;;;2.70;;
51122;SDS011;37162;41.724;13.346;2022-07-23T01:04:50;2.33;;;2.13;;
51122;SDS011;37162;41.724;13.346;2022-07-23T01:07:16;2.78;;;2.58;;
51122;SDS011;37162;41.724;13.346;2022-07-23T01:09:44;2.60;;;2.40;;
51122;SDS011;37162;41.724;13.346;2022-07-23T01:12:10;2.92;;;2.22;;
51122;SDS011;37162;41.724;13.346;2022-07-23T01:14:36;2.28;;;2.08;;
51122;SDS011;37162;41.724;13.346;2022-07-23T01:17:01;2.20;;;2.03;;
51122;SDS011;37162;41.724;13.346;2022-07-23T01:19:27;2.30;;;2.10;;
51122;SDS011;37162;41.724;13.346;2022-07-23T01:21:53;2.95;;;2.10;;
51122;SDS011;37162;41.724;13.346;2022-07-23T01:24:19;2.47;;;2.28;;
51122;SDS011;37162;41.724;13.346;2022-07-23T01:26:46;2.80;;;2.60;;
51122;SDS011;37162;41.724;13.346;2022-07-23T01:29:12;2.50;;;2.30;;
51122;SDS011;37162;41.724;13.346;2022-07-23T01:31:38;2.45;;;2.15;;
51122;SDS011;37162;41.724;13.346;2022-07-23T01:34:04;2.97;;;2.42;;
51122;SDS011;37162;41.724;13.346;2022-07-23T01:36:32;2.60;;;2.40;;
51122;SDS011;37162;41.724;13.346;2022-07-23T01:38:58;2.90;;;2.22;;
51122;SDS011;37162;41.724;13.346;2022-07-23T01:41:24;2.97;;;2.20;;
51122;SDS011;37162;41.724;13.346;2022-07-23T01:43:49;2.80;;;2.22;;
51122;SDS011;37162;41.724;13.346;2022-07-23T01:46:15;2.70;;;2.50;;
51122;SDS011;37162;41.724;13.346;2022-07-23T01:48:40;3.15;;;2.35;;
51122;SDS011;37162;41.724;13.346;2022-07-23T01:51:06;2.30;;;2.10;;
51122;SDS011;37162;41.724;13.346;2022-07-23T01:53:32;3.10;;;2.38;;
51122;SDS011;37162;41.724;13.346;2022-07-23T01:55:58;2.85;;;2.65;;
51122;SDS011;37162;41.724;13.346;2022-07-23T01:58:24;3.17;;;2.65;;
51122;SDS011;37162;41.724;13.346;2022-07-23T02:00:50;2.25;;;2.05;;
51122;SDS011;37162;41.724;13.346;2022-07-23T02:03:15;2.33;;;2.13;;
51122;SDS011;37162;41.724;13.346;2022-07-23T02:05:41;2.65;;;2.40;;
51122;SDS011;37162;41.724;13.346;2022-07-23T02:08:06;3.53;;;2.22;;
51122;SDS011;37162;41.724;13.346;2022-07-23T02:10:32;2.47;;;2.25;;
51122;SDS011;37162;41.724;13.346;2022-07-23T02:12:57;2.60;;;2.40;;
51122;SDS011;37162;41.724;13.346;2022-07-23T02:15:23;2.40;;;2.20;;
51122;SDS011;37162;41.724;13.346;2022-07-23T02:17:48;2.47;;;2.15;;
51122;SDS011;37162;41.724;13.346;2022-07-23T02:20:13;2.05;;;1.95;;
51122;SDS011;37162;41.724;13.346;2022-07-23T02:22:39;2.50;;;2.28;;
51122;SDS011;37162;41.724;13.346;2022-07-23T02:25:05;2.50;;;2.30;;
51122;SDS011;37162;41.724;13.346;2022-07-23T02:27:32;2.10;;;2.00;;
51122;SDS011;37162;41.724;13.346;2022-07-23T02:29:58;2.55;;;2.35;;
51122;SDS011;37162;41.724;13.346;2022-07-23T02:32:23;3.25;;;2.17;;
51122;SDS011;37162;41.724;13.346;2022-07-23T02:34:49;2.60;;;1.90;;
51122;SDS011;37162;41.724;13.346;2022-07-23T02:37:15;2.50;;;2.30;;
51122;SDS011;37162;41.724;13.346;2022-07-23T02:39:40;3.13;;;2.25;;
51122;SDS011;37162;41.724;13.346;2022-07-23T02:42:06;2.65;;;2.45;;
51122;SDS011;37162;41.724;13.346;2022-07-23T02:44:31;2.13;;;1.98;;
51122;SDS011;37162;41.724;13.346;2022-07-23T02:46:57;2.90;;;1.95;;
51122;SDS011;37162;41.724;13.346;2022-07-23T02:49:23;3.30;;;2.13;;
51122;SDS011;37162;41.724;13.346;2022-07-23T02:51:48;2.30;;;2.10;;
51122;SDS011;37162;41.724;13.346;2022-07-23T02:54:14;2.28;;;2.08;;
51122;SDS011;37162;41.724;13.346;2022-07-23T02:56:39;5.32;;;2.60;;
51122;SDS011;37162;41.724;13.346;2022-07-23T02:59:05;2.42;;;1.98;;
51122;SDS011;37162;41.724;13.346;2022-07-23T03:01:30;2.28;;;2.08;;
51122;SDS011;37162;41.724;13.346;2022-07-23T03:03:56;2.60;;;2.40;;
51122;SDS011;37162;41.724;13.346;2022-07-23T03:06:21;2.33;;;2.13;;
51122;SDS011;37162;41.724;13.346;2022-07-23T03:08:47;2.65;;;2.45;;
51122;SDS011;37162;41.724;13.346;2022-07-23T03:11:12;3.17;;;2.20;;
51122;SDS011;37162;41.724;13.346;2022-07-23T03:13:38;2.88;;;2.58;;
51122;SDS011;37162;41.724;13.346;2022-07-23T03:16:04;2.58;;;2.38;;
51122;SDS011;37162;41.724;13.346;2022-07-23T03:18:30;2.95;;;2.40;;
51122;SDS011;37162;41.724;13.346;2022-07-23T03:20:55;4.45;;;2.78;;
51122;SDS011;37162;41.724;13.346;2022-07-23T03:23:21;3.63;;;2.63;;
51122;SDS011;37162;41.724;13.346;2022-07-23T03:25:46;2.30;;;2.10;;
51122;SDS011;37162;41.724;13.346;2022-07-23T03:28:13;3.38;;;2.47;;
51122;SDS011;37162;41.724;13.346;2022-07-23T03:30:41;4.15;;;2.60;;
51122;SDS011;37162;41.724;13.346;2022-07-23T03:33:07;3.10;;;2.80;;
51122;SDS011;37162;41.724;13.346;2022-07-23T03:35:32;5.55;;;2.80;;
51122;SDS011;37162;41.724;13.346;2022-07-23T03:37:58;3.10;;;2.80;;
51122;SDS011;37162;41.724;13.346;2022-07-23T03:40:23;5.38;;;2.65;;
51122;SDS011;37162;41.724;13.346;2022-07-23T03:42:49;3.72;;;2.85;;
51122;SDS011;37162;41.724;13.346;2022-07-23T03:45:14;3.50;;;3.17;;
51122;SDS011;37162;41.724;13.346;2022-07-23T03:47:39;3.55;;;2.75;;
51122;SDS011;37162;41.724;13.346;2022-07-23T03:50:05;3.05;;;2.55;;
51122;SDS011;37162;41.724;13.346;2022-07-23T03:52:31;2.92;;;2.60;;
51122;SDS011;37162;41.724;13.346;2022-07-23T03:54:56;8.63;;;3.10;;
51122;SDS011;37162;41.724;13.346;2022-07-23T03:57:22;5.85;;;3.30;;
51122;SDS011;37162;41.724;13.346;2022-07-23T03:59:47;16.52;;;3.83;;
51122;SDS011;37162;41.724;13.346;2022-07-23T04:02:13;23.90;;;5.13;;
51122;SDS011;37162;41.724;13.346;2022-07-23T04:04:38;30.85;;;5.32;;
51122;SDS011;37162;41.724;13.346;2022-07-23T04:07:03;19.77;;;4.22;;
51122;SDS011;37162;41.724;13.346;2022-07-23T04:09:29;18.60;;;4.20;;
51122;SDS011;37162;41.724;13.346;2022-07-23T04:11:54;13.32;;;3.17;;
51122;SDS011;37162;41.724;13.346;2022-07-23T04:14:20;15.63;;;3.38;;
51122;SDS011;37162;41.724;13.346;2022-07-23T04:16:45;6.30;;;3.40;;
51122;SDS011;37162;41.724;13.346;2022-07-23T04:19:10;11.73;;;4.10;;
51122;SDS011;37162;41.724;13.346;2022-07-23T04:21:36;10.77;;;3.33;;
51122;SDS011;37162;41.724;13.346;2022-07-23T04:24:01;9.48;;;3.20;;
51122;SDS011;37162;41.724;13.346;2022-07-23T04:26:27;4.78;;;2.75;;
51122;SDS011;37162;41.724;13.346;2022-07-23T04:28:52;8.68;;;3.47;;
51122;SDS011;37162;41.724;13.346;2022-07-23T04:31:18;8.85;;;3.00;;
51122;SDS011;37162;41.724;13.346;2022-07-23T04:33:43;9.77;;;3.70;;
51122;SDS011;37162;41.724;13.346;2022-07-23T04:36:09;4.40;;;3.45;;
51122;SDS011;37162;41.724;13.346;2022-07-23T04:38:34;5.75;;;2.88;;
51122;SDS011;37162;41.724;13.346;2022-07-23T04:41:00;3.60;;;2.75;;
51122;SDS011;37162;41.724;13.346;2022-07-23T04:43:25;8.05;;;3.65;;
51122;SDS011;37162;41.724;13.346;2022-07-23T04:45:51;8.73;;;3.72;;
51122;SDS011;37162;41.724;13.346;2022-07-23T04:48:16;7.85;;;3.38;;
51122;SDS011;37162;41.724;13.346;2022-07-23T04:50:41;8.20;;;2.83;;
51122;SDS011;37162;41.724;13.346;2022-07-23T04:53:07;6.88;;;2.88;;
51122;SDS011;37162;41.724;13.346;2022-07-23T04:55:33;5.03;;;2.85;;
51122;SDS011;37162;41.724;13.346;2022-07-23T04:57:58;5.22;;;3.22;;
51122;SDS011;37162;41.724;13.346;2022-07-23T05:00:24;3.90;;;2.55;;
51122;SDS011;37162;41.724;13.346;2022-07-23T05:02:49;7.43;;;2.97;;
51122;SDS011;37162;41.724;13.346;2022-07-23T05:05:15;4.80;;;2.50;;
51122;SDS011;37162;41.724;13.346;2022-07-23T05:07:40;2.95;;;2.35;;
51122;SDS011;37162;41.724;13.346;2022-07-23T05:10:06;6.88;;;2.88;;
51122;SDS011;37162;41.724;13.346;2022-07-23T05:12:31;3.47;;;3.10;;
51122;SDS011;37162;41.724;13.346;2022-07-23T05:14:57;3.58;;;2.80;;
51122;SDS011;37162;41.724;13.346;2022-07-23T05:17:23;4.03;;;2.72;;
51122;SDS011;37162;41.724;13.346;2022-07-23T05:19:48;4.30;;;3.05;;
51122;SDS011;37162;41.724;13.346;2022-07-23T05:22:14;4.57;;;2.55;;
51122;SDS011;37162;41.724;13.346;2022-07-23T05:24:39;4.05;;;3.15;;
51122;SDS011;37162;41.724;13.346;2022-07-23T05:27:05;4.43;;;2.95;;
51122;SDS011;37162;41.724;13.346;2022-07-23T05:29:30;6.57;;;3.33;;
51122;SDS011;37162;41.724;13.346;2022-07-23T05:31:55;4.03;;;2.88;;
51122;SDS011;37162;41.724;13.346;2022-07-23T05:34:21;5.65;;;4.40;;
51122;SDS011;37162;41.724;13.346;2022-07-23T05:36:46;3.50;;;2.70;;
51122;SDS011;37162;41.724;13.346;2022-07-23T05:39:11;7.40;;;3.00;;
51122;SDS011;37162;41.724;13.346;2022-07-23T05:41:37;3.30;;;2.72;;
51122;SDS011;37162;41.724;13.346;2022-07-23T05:44:02;3.72;;;3.00;;
51122;SDS011;37162;41.724;13.346;2022-07-23T05:46:28;3.28;;;2.92;;
51122;SDS011;37162;41.724;13.346;2022-07-23T05:48:53;3.13;;;2.83;;
51122;SDS011;37162;41.724;13.346;2022-07-23T05:51:19;4.80;;;3.20;;
51122;SDS011;37162;41.724;13.346;2022-07-23T05:53:46;8.90;;;3.50;;
51122;SDS011;37162;41.724;13.346;2022-07-23T05:56:11;5.47;;;2.70;;
51122;SDS011;37162;41.724;13.346;2022-07-23T05:58:37;3.17;;;2.78;;
51122;SDS011;37162;41.724;13.346;2022-07-23T06:01:02;3.22;;;2.92;;
51122;SDS011;37162;41.724;13.346;2022-07-23T06:03:27;3.63;;;3.05;;
51122;SDS011;37162;41.724;13.346;2022-07-23T06:05:53;6.30;;;3.30;;
51122;SDS011;37162;41.724;13.346;2022-07-23T06:08:18;4.18;;;3.17;;
51122;SDS011;37162;41.724;13.346;2022-07-23T06:10:44;4.18;;;3.20;;
51122;SDS011;37162;41.724;13.346;2022-07-23T06:13:09;3.95;;;2.90;;
51122;SDS011;37162;41.724;13.346;2022-07-23T06:15:35;3.83;;;3.28;;
51122;SDS011;37162;41.724;13.346;2022-07-23T06:18:00;3.50;;;3.05;;
51122;SDS011;37162;41.724;13.346;2022-07-23T06:20:25;5.68;;;2.92;;
51122;SDS011;37162;41.724;13.346;2022-07-23T06:22:51;5.72;;;2.90;;
51122;SDS011;37162;41.724;13.346;2022-07-23T06:25:16;4.18;;;3.78;;
51122;SDS011;37162;41.724;13.346;2022-07-23T06:27:42;4.70;;;2.58;;
51122;SDS011;37162;41.724;13.346;2022-07-23T06:30:07;3.70;;;3.17;;
51122;SDS011;37162;41.724;13.346;2022-07-23T06:32:33;3.63;;;2.83;;
51122;SDS011;37162;41.724;13.346;2022-07-23T06:34:59;4.68;;;2.58;;
51122;SDS011;37162;41.724;13.346;2022-07-23T06:37:24;4.10;;;3.00;;
51122;SDS011;37162;41.724;13.346;2022-07-23T06:39:50;4.28;;;3.25;;
51122;SDS011;37162;41.724;13.346;2022-07-23T06:42:15;4.32;;;3.10;;
51122;SDS011;37162;41.724;13.346;2022-07-23T06:44:40;4.22;;;3.05;;
51122;SDS011;37162;41.724;13.346;2022-07-23T06:47:06;3.60;;;3.20;;
51122;SDS011;37162;41.724;13.346;2022-07-23T06:49:32;5.20;;;3.78;;
51122;SDS011;37162;41.724;13.346;2022-07-23T06:51:57;3.70;;;2.90;;
51122;SDS011;37162;41.724;13.346;2022-07-23T06:54:22;3.20;;;2.90;;
51122;SDS011;37162;41.724;13.346;2022-07-23T06:56:48;4.28;;;3.30;;
51122;SDS011;37162;41.724;13.346;2022-07-23T06:59:13;4.13;;;2.90;;
51122;SDS011;37162;41.724;13.346;2022-07-23T07:01:39;4.53;;;3.30;;
51122;SDS011;37162;41.724;13.346;2022-07-23T07:04:04;3.53;;;3.13;;
51122;SDS011;37162;41.724;13.346;2022-07-23T07:06:30;3.53;;;3.03;;
51122;SDS011;37162;41.724;13.346;2022-07-23T07:08:55;4.28;;;2.90;;
51122;SDS011;37162;41.724;13.346;2022-07-23T07:11:21;8.18;;;3.05;;
51122;SDS011;37162;41.724;13.346;2022-07-23T07:13:48;5.93;;;3.00;;
51122;SDS011;37162;41.724;13.346;2022-07-23T07:16:14;3.40;;;3.00;;
51122;SDS011;37162;41.724;13.346;2022-07-23T07:18:39;3.58;;;3.13;;
51122;SDS011;37162;41.724;13.346;2022-07-23T07:21:05;4.47;;;3.08;;
51122;SDS011;37162;41.724;13.346;2022-07-23T07:23:30;3.35;;;3.05;;
51122;SDS011;37162;41.724;13.346;2022-07-23T07:25:56;3.58;;;2.75;;
51122;SDS011;37162;41.724;13.346;2022-07-23T07:28:21;5.32;;;3.10;;
51122;SDS011;37162;41.724;13.346;2022-07-23T07:30:46;5.40;;;3.53;;
51122;SDS011;37162;41.724;13.346;2022-07-23T07:33:12;3.65;;;3.28;;
51122;SDS011;37162;41.724;13.346;2022-07-23T07:35:37;6.20;;;3.33;;
51122;SDS011;37162;41.724;13.346;2022-07-23T07:38:03;5.75;;;3.05;;
51122;SDS011;37162;41.724;13.346;2022-07-23T07:40:28;3.90;;;3.25;;
51122;SDS011;37162;41.724;13.346;2022-07-23T07:42:54;5.93;;;3.53;;
51122;SDS011;37162;41.724;13.346;2022-07-23T07:45:22;3.90;;;3.30;;
51122;SDS011;37162;41.724;13.346;2022-07-23T07:47:49;4.63;;;3.05;;
51122;SDS011;37162;41.724;13.346;2022-07-23T07:50:14;3.80;;;3.47;;
51122;SDS011;37162;41.724;13.346;2022-07-23T07:52:40;6.82;;;3.42;;
51122;SDS011;37162;41.724;13.346;2022-07-23T07:55:07;4.88;;;3.60;;
51122;SDS011;37162;41.724;13.346;2022-07-23T07:57:33;8.35;;;3.45;;
51122;SDS011;37162;41.724;13.346;2022-07-23T07:59:59;14.30;;;4.35;;
51122;SDS011;37162;41.724;13.346;2022-07-23T08:02:25;5.03;;;3.35;;
51122;SDS011;37162;41.724;13.346;2022-07-23T08:04:50;4.00;;;3.58;;
51122;SDS011;37162;41.724;13.346;2022-07-23T08:07:16;4.95;;;4.15;;
51122;SDS011;37162;41.724;13.346;2022-07-23T08:09:41;8.63;;;4.03;;
51122;SDS011;37162;41.724;13.346;2022-07-23T08:12:07;4.85;;;4.15;;
51122;SDS011;37162;41.724;13.346;2022-07-23T08:14:32;4.50;;;3.97;;
51122;SDS011;37162;41.724;13.346;2022-07-23T08:16:58;4.35;;;3.60;;
51122;SDS011;37162;41.724;13.346;2022-07-23T08:19:24;4.97;;;3.95;;
51122;SDS011;37162;41.724;13.346;2022-07-23T08:21:49;4.88;;;3.85;;
51122;SDS011;37162;41.724;13.346;2022-07-23T08:24:15;4.85;;;4.05;;
51122;SDS011;37162;41.724;13.346;2022-07-23T08:26:40;20.98;;;5.45;;
51122;SDS011;37162;41.724;13.346;2022-07-23T08:29:06;15.02;;;4.45;;
51122;SDS011;37162;41.724;13.346;2022-07-23T08:31:32;6.18;;;3.80;;
51122;SDS011;37162;41.724;13.346;2022-07-23T08:33:58;11.15;;;4.43;;
51122;SDS011;37162;41.724;13.346;2022-07-23T08:36:24;13.82;;;5.85;;
51122;SDS011;37162;41.724;13.346;2022-07-23T08:38:52;25.45;;;4.80;;
51122;SDS011;37162;41.724;13.346;2022-07-23T08:41:19;25.30;;;6.55;;
51122;SDS011;37162;41.724;13.346;2022-07-23T08:43:44;30.00;;;6.68;;
51122;SDS011;37162;41.724;13.346;2022-07-23T08:46:10;53.17;;;10.07;;
51122;SDS011;37162;41.724;13.346;2022-07-23T08:48:35;74.13;;;12.88;;
51122;SDS011;37162;41.724;13.346;2022-07-23T08:51:02;86.72;;;14.30;;
51122;SDS011;37162;41.724;13.346;2022-07-23T08:53:29;77.68;;;12.93;;
51122;SDS011;37162;41.724;13.346;2022-07-23T08:55:57;109.10;;;13.40;;
51122;SDS011;37162;41.724;13.346;2022-07-23T08:58:24;104.88;;;15.23;;
51122;SDS011;37162;41.724;13.346;2022-07-23T09:00:50;47.58;;;11.88;;
51122;SDS011;37162;41.724;13.346;2022-07-23T09:03:17;83.43;;;15.30;;
51122;SDS011;37162;41.724;13.346;2022-07-23T09:05:49;74.00;;;14.13;;
51122;SDS011;37162;41.724;13.346;2022-07-23T09:08:17;54.53;;;11.85;;
51122;SDS011;37162;41.724;13.346;2022-07-23T09:13:36;47.72;;;10.25;;
51122;SDS011;37162;41.724;13.346;2022-07-23T09:16:05;26.02;;;7.22;;
51122;SDS011;37162;41.724;13.346;2022-07-23T09:18:37;25.05;;;7.40;;
51122;SDS011;37162;41.724;13.346;2022-07-23T09:23:46;24.95;;;7.25;;
51122;SDS011;37162;41.724;13.346;2022-07-23T09:28:52;19.42;;;5.80;;
51122;SDS011;37162;41.724;13.346;2022-07-23T09:31:30;21.88;;;7.93;;
51122;SDS011;37162;41.724;13.346;2022-07-23T09:34:17;66.38;;;9.20;;
51122;SDS011;37162;41.724;13.346;2022-07-23T09:36:43;34.78;;;9.10;;
51122;SDS011;37162;41.724;13.346;2022-07-23T09:39:09;38.50;;;10.25;;
51122;SDS011;37162;41.724;13.346;2022-07-23T09:41:45;49.00;;;9.35;;
51122;SDS011;37162;41.724;13.346;2022-07-23T09:44:13;52.72;;;10.13;;
51122;SDS011;37162;41.724;13.346;2022-07-23T09:46:43;70.72;;;12.00;;
51122;SDS011;37162;41.724;13.346;2022-07-23T09:56:59;37.72;;;7.82;;
51122;SDS011;37162;41.724;13.346;2022-07-23T09:59:27;23.80;;;7.55;;
51122;SDS011;37162;41.724;13.346;2022-07-23T10:01:55;27.25;;;7.50;;
51122;SDS011;37162;41.724;13.346;2022-07-23T10:04:24;23.10;;;5.70;;
51122;SDS011;37162;41.724;13.346;2022-07-23T10:06:51;16.35;;;6.35;;
51122;SDS011;37162;41.724;13.346;2022-07-23T10:09:18;16.95;;;5.97;;
51122;SDS011;37162;41.724;13.346;2022-07-23T10:11:48;23.88;;;5.43;;
51122;SDS011;37162;41.724;13.346;2022-07-23T10:14:15;21.60;;;6.35;;
51122;SDS011;37162;41.724;13.346;2022-07-23T10:16:41;18.58;;;6.25;;
51122;SDS011;37162;41.724;13.346;2022-07-23T10:19:08;16.00;;;5.47;;
51122;SDS011;37162;41.724;13.346;2022-07-23T10:21:37;11.23;;;5.13;;
51122;SDS011;37162;41.724;13.346;2022-07-23T10:24:23;14.68;;;5.03;;
51122;SDS011;37162;41.724;13.346;2022-07-23T10:30:04;9.93;;;4.25;;
51122;SDS011;37162;41.724;13.346;2022-07-23T10:35:44;8.50;;;4.20;;
51122;SDS011;37162;41.724;13.346;2022-07-23T10:41:33;8.65;;;3.78;;
51122;SDS011;37162;41.724;13.346;2022-07-23T10:44:16;6.22;;;3.67;;
51122;SDS011;37162;41.724;13.346;2022-07-23T10:46:59;5.40;;;3.67;;
51122;SDS011;37162;41.724;13.346;2022-07-23T10:49:35;4.65;;;3.30;;
51122;SDS011;37162;41.724;13.346;2022-07-23T10:54:38;4.88;;;2.70;;
51122;SDS011;37162;41.724;13.346;2022-07-23T10:57:08;5.10;;;3.38;;
51122;SDS011;37162;41.724;13.346;2022-07-23T11:02:38;7.18;;;4.35;;
51122;SDS011;37162;41.724;13.346;2022-07-23T11:05:06;4.82;;;2.70;;
51122;SDS011;37162;41.724;13.346;2022-07-23T11:07:35;3.95;;;2.72;;
51122;SDS011;37162;41.724;13.346;2022-07-23T11:10:02;4.38;;;2.95;;
51122;SDS011;37162;41.724;13.346;2022-07-23T11:17:22;3.30;;;2.58;;
51122;SDS011;37162;41.724;13.346;2022-07-23T11:22:37;6.68;;;2.75;;
51122;SDS011;37162;41.724;13.346;2022-07-23T11:27:39;5.63;;;3.13;;
51122;SDS011;37162;41.724;13.346;2022-07-23T11:30:09;8.55;;;2.75;;
51122;SDS011;37162;41.724;13.346;2022-07-23T11:35:34;4.85;;;2.80;;
51122;SDS011;37162;41.724;13.346;2022-07-23T11:38:34;7.30;;;2.80;;
51122;SDS011;37162;41.724;13.346;2022-07-23T11:40:53;5.15;;;2.90;;
51122;SDS011;37162;41.724;13.346;2022-07-23T11:43:22;8.27;;;3.28;;
51122;SDS011;37162;41.724;13.346;2022-07-23T11:45:52;4.35;;;2.80;;
51122;SDS011;37162;41.724;13.346;2022-07-23T11:50:49;4.07;;;2.70;;
51122;SDS011;37162;41.724;13.346;2022-07-23T11:53:29;4.97;;;3.10;;
51122;SDS011;37162;41.724;13.346;2022-07-23T11:56:08;4.05;;;3.03;;
51122;SDS011;37162;41.724;13.346;2022-07-23T11:58:35;3.53;;;2.85;;
51122;SDS011;37162;41.724;13.346;2022-07-23T12:01:01;3.83;;;2.60;;
51122;SDS011;37162;41.724;13.346;2022-07-23T12:03:27;3.10;;;2.42;;
51122;SDS011;37162;41.724;13.346;2022-07-23T12:05:56;2.75;;;2.47;;
51122;SDS011;37162;41.724;13.346;2022-07-23T12:08:22;4.55;;;2.75;;
51122;SDS011;37162;41.724;13.346;2022-07-23T12:10:48;3.58;;;2.70;;
51122;SDS011;37162;41.724;13.346;2022-07-23T12:13:14;5.68;;;2.60;;
51122;SDS011;37162;41.724;13.346;2022-07-23T12:15:44;7.70;;;3.17;;
51122;SDS011;37162;41.724;13.346;2022-07-23T12:18:11;4.05;;;2.97;;
51122;SDS011;37162;41.724;13.346;2022-07-23T12:20:40;4.90;;;2.97;;
51122;SDS011;37162;41.724;13.346;2022-07-23T12:23:10;2.53;;;2.33;;
51122;SDS011;37162;41.724;13.346;2022-07-23T12:25:38;2.80;;;2.60;;
51122;SDS011;37162;41.724;13.346;2022-07-23T12:28:16;3.10;;;2.80;;
51122;SDS011;37162;41.724;13.346;2022-07-23T12:30:44;5.07;;;2.60;;
51122;SDS011;37162;41.724;13.346;2022-07-23T12:33:14;4.28;;;2.88;;
51122;SDS011;37162;41.724;13.346;2022-07-23T12:35:49;5.10;;;3.17;;
51122;SDS011;37162;41.724;13.346;2022-07-23T12:38:15;2.80;;;2.60;;
51122;SDS011;37162;41.724;13.346;2022-07-23T12:43:25;8.75;;;2.85;;
51122;SDS011;37162;41.724;13.346;2022-07-23T12:46:16;5.05;;;3.00;;
51122;SDS011;37162;41.724;13.346;2022-07-23T12:53:42;5.47;;;3.50;;
51122;SDS011;37162;41.724;13.346;2022-07-23T12:56:11;6.38;;;3.20;;
51122;SDS011;37162;41.724;13.346;2022-07-23T13:03:55;5.95;;;3.22;;
51122;SDS011;37162;41.724;13.346;2022-07-23T13:06:34;7.28;;;2.80;;
51122;SDS011;37162;41.724;13.346;2022-07-23T13:09:03;4.55;;;2.88;;
51122;SDS011;37162;41.724;13.346;2022-07-23T13:11:30;3.83;;;2.72;;
51122;SDS011;37162;41.724;13.346;2022-07-23T13:13:56;4.18;;;3.10;;
51122;SDS011;37162;41.724;13.346;2022-07-23T13:16:22;6.20;;;3.13;;
51122;SDS011;37162;41.724;13.346;2022-07-23T13:18:47;8.23;;;3.35;;
51122;SDS011;37162;41.724;13.346;2022-07-23T13:21:13;3.97;;;2.90;;
51122;SDS011;37162;41.724;13.346;2022-07-23T13:23:39;5.10;;;2.85;;
51122;SDS011;37162;41.724;13.346;2022-07-23T13:26:04;4.63;;;2.90;;
51122;SDS011;37162;41.724;13.346;2022-07-23T13:28:30;5.25;;;3.22;;
51122;SDS011;37162;41.724;13.346;2022-07-23T13:30:55;5.85;;;3.83;;
51122;SDS011;37162;41.724;13.346;2022-07-23T13:33:22;3.45;;;2.83;;
51122;SDS011;37162;41.724;13.346;2022-07-23T13:35:49;5.18;;;2.85;;
51122;SDS011;37162;41.724;13.346;2022-07-23T13:38:15;7.97;;;2.92;;
51122;SDS011;37162;41.724;13.346;2022-07-23T13:40:42;4.30;;;2.83;;
51122;SDS011;37162;41.724;13.346;2022-07-23T13:43:09;6.20;;;2.78;;
51122;SDS011;37162;41.724;13.346;2022-07-23T13:45:37;4.38;;;2.67;;
51122;SDS011;37162;41.724;13.346;2022-07-23T13:48:03;4.05;;;2.88;;
51122;SDS011;37162;41.724;13.346;2022-07-23T13:50:29;3.20;;;2.70;;
51122;SDS011;37162;41.724;13.346;2022-07-23T13:52:55;4.55;;;3.47;;
51122;SDS011;37162;41.724;13.346;2022-07-23T13:55:20;5.35;;;2.85;;
51122;SDS011;37162;41.724;13.346;2022-07-23T13:57:46;4.15;;;3.22;;
51122;SDS011;37162;41.724;13.346;2022-07-23T14:00:11;4.03;;;2.80;;
51122;SDS011;37162;41.724;13.346;2022-07-23T14:02:38;3.90;;;2.85;;
51122;SDS011;37162;41.724;13.346;2022-07-23T14:05:05;4.03;;;2.70;;
51122;SDS011;37162;41.724;13.346;2022-07-23T14:07:32;3.35;;;3.05;;
51122;SDS011;37162;41.724;13.346;2022-07-23T14:09:58;5.28;;;3.13;;
51122;SDS011;37162;41.724;13.346;2022-07-23T14:12:24;3.50;;;3.08;;
51122;SDS011;37162;41.724;13.346;2022-07-23T14:14:50;3.45;;;2.58;;
51122;SDS011;37162;41.724;13.346;2022-07-23T14:17:16;2.90;;;2.60;;
51122;SDS011;37162;41.724;13.346;2022-07-23T14:19:41;3.45;;;3.15;;
51122;SDS011;37162;41.724;13.346;2022-07-23T14:22:07;3.60;;;3.30;;
51122;SDS011;37162;41.724;13.346;2022-07-23T14:24:32;3.65;;;3.00;;
51122;SDS011;37162;41.724;13.346;2022-07-23T14:26:59;3.63;;;2.90;;
51122;SDS011;37162;41.724;13.346;2022-07-23T14:29:25;4.32;;;3.10;;
51122;SDS011;37162;41.724;13.346;2022-07-23T14:31:51;3.67;;;3.30;;
51122;SDS011;37162;41.724;13.346;2022-07-23T14:34:16;4.47;;;3.50;;
51122;SDS011;37162;41.724;13.346;2022-07-23T14:36:42;4.65;;;3.58;;
51122;SDS011;37162;41.724;13.346;2022-07-23T14:39:08;5.13;;;3.80;;
51122;SDS011;37162;41.724;13.346;2022-07-23T14:41:34;4.10;;;3.53;;
51122;SDS011;37162;41.724;13.346;2022-07-23T14:44:00;4.07;;;3.10;;
51122;SDS011;37162;41.724;13.346;2022-07-23T14:46:26;3.97;;;3.60;;
51122;SDS011;37162;41.724;13.346;2022-07-23T14:48:52;3.83;;;3.38;;
51122;SDS011;37162;41.724;13.346;2022-07-23T14:51:17;4.22;;;3.50;;
51122;SDS011;37162;41.724;13.346;2022-07-23T14:53:43;5.43;;;3.38;;
51122;SDS011;37162;41.724;13.346;2022-07-23T14:56:08;3.95;;;3.50;;
51122;SDS011;37162;41.724;13.346;2022-07-23T14:58:34;3.50;;;3.20;;
51122;SDS011;37162;41.724;13.346;2022-07-23T15:01:00;7.20;;;3.80;;
51122;SDS011;37162;41.724;13.346;2022-07-23T15:03:25;3.53;;;3.22;;
51122;SDS011;37162;41.724;13.346;2022-07-23T15:05:50;4.93;;;3.10;;
51122;SDS011;37162;41.724;13.346;2022-07-23T15:08:16;5.90;;;3.63;;
51122;SDS011;37162;41.724;13.346;2022-07-23T15:10:42;4.10;;;3.70;;
51122;SDS011;37162;41.724;13.346;2022-07-23T15:13:08;4.40;;;3.15;;
51122;SDS011;37162;41.724;13.346;2022-07-23T15:15:33;4.03;;;3.22;;
51122;SDS011;37162;41.724;13.346;2022-07-23T15:17:58;4.80;;;3.83;;
51122;SDS011;37162;41.724;13.346;2022-07-23T15:20:24;3.95;;;3.33;;
51122;SDS011;37162;41.724;13.346;2022-07-23T15:22:50;4.00;;;3.40;;
51122;SDS011;37162;41.724;13.346;2022-07-23T15:25:15;5.03;;;3.60;;
51122;SDS011;37162;41.724;13.346;2022-07-23T15:27:40;3.80;;;3.30;;